createdAt,value
2023-02-23T00:00:28.665Z,6.70
2023-02-23T00:03:01.094Z,6.60
2023-02-23T00:07:55.124Z,6.60
2023-02-23T00:10:25.042Z,6.60
2023-02-23T00:12:51.986Z,6.60
2023-02-23T00:15:18.608Z,6.60
2023-02-23T00:20:28.250Z,6.60
2023-02-23T00:22:55.528Z,6.60
2023-02-23T00:25:23.959Z,6.50
2023-02-23T00:27:51.740Z,6.60
2023-02-23T00:30:19.157Z,6.50
2023-02-23T00:32:46.554Z,6.50
2023-02-23T00:35:17.500Z,6.40
2023-02-23T00:37:48.261Z,6.40
2023-02-23T00:40:16.605Z,6.30
2023-02-23T00:45:11.234Z,6.40
2023-02-23T00:47:42.407Z,6.40
2023-02-23T00:50:13.424Z,6.50
2023-02-23T00:52:40.292Z,6.50
2023-02-23T00:55:11.017Z,6.40
2023-02-23T00:57:37.946Z,6.40
2023-02-23T01:00:18.710Z,6.40
2023-02-23T01:02:45.472Z,6.50
2023-02-23T01:05:12.300Z,6.50
2023-02-23T01:07:39.159Z,6.40
2023-02-23T01:10:19.048Z,6.50
2023-02-23T01:12:50.466Z,6.50
2023-02-23T01:15:17.622Z,6.60
2023-02-23T01:20:28.605Z,6.60
2023-02-23T01:22:55.290Z,6.40
2023-02-23T01:25:21.897Z,6.50
2023-02-23T01:27:50.416Z,6.30
2023-02-23T01:30:17.051Z,6.40
2023-02-23T01:32:47.288Z,6.40
2023-02-23T01:35:17.565Z,6.50
2023-02-23T01:37:47.141Z,6.40
2023-02-23T01:40:16.378Z,6.40
2023-02-23T01:42:45.052Z,6.40
2023-02-23T01:45:32.686Z,6.80
2023-02-23T01:48:01.700Z,6.30
2023-02-23T01:50:37.360Z,6.30
2023-02-23T01:53:04.482Z,6.30
2023-02-23T01:55:31.522Z,6.40
2023-02-23T01:58:02.129Z,6.40
2023-02-23T02:00:31.498Z,6.50
2023-02-23T02:02:59.882Z,6.50
2023-02-23T02:05:27.957Z,6.50
2023-02-23T02:07:59.210Z,6.30
2023-02-23T02:10:47.294Z,6.40
2023-02-23T02:13:26.933Z,6.40
2023-02-23T02:16:02.056Z,6.50
2023-02-23T02:18:45.037Z,6.50
2023-02-23T02:21:40.064Z,6.50
2023-02-23T02:24:08.198Z,6.50
2023-02-23T02:26:41.387Z,6.50
2023-02-23T02:29:28.704Z,6.50
2023-02-23T02:32:01.754Z,6.40
2023-02-23T02:34:47.170Z,6.40
2023-02-23T02:37:20.552Z,6.50
2023-02-23T02:40:16.210Z,6.40
2023-02-23T02:43:11.176Z,6.40
2023-02-23T02:45:41.138Z,6.50
2023-02-23T02:48:14.181Z,6.50
2023-02-23T02:50:47.792Z,6.40
2023-02-23T02:53:21.073Z,6.50
2023-02-23T02:55:48.658Z,6.80
2023-02-23T02:58:17.720Z,6.60
2023-02-23T03:01:09.169Z,6.20
2023-02-23T03:04:01.780Z,6.40
2023-02-23T03:06:47.196Z,6.50
2023-02-23T03:09:47.621Z,6.00
2023-02-23T03:12:42.032Z,6.30
2023-02-23T03:15:47.768Z,6.10
2023-02-23T03:18:32.818Z,6.90
2023-02-23T03:21:20.233Z,6.40
2023-02-23T03:24:25.871Z,6.30
2023-02-23T03:27:14.408Z,6.30
2023-02-23T03:30:07.525Z,6.30
2023-02-23T03:33:06.067Z,6.30
2023-02-23T03:35:51.311Z,6.20
2023-02-23T03:38:43.967Z,6.00
2023-02-23T03:41:30.001Z,6.20
2023-02-23T03:44:17.563Z,6.20
2023-02-23T03:47:04.133Z,6.10
2023-02-23T03:49:52.716Z,6.00
2023-02-23T03:52:39.656Z,6.00
2023-02-23T03:55:28.752Z,6.10
2023-02-23T04:01:21.525Z,6.30
2023-02-23T04:04:07.531Z,6.00
2023-02-23T04:06:55.778Z,6.00
2023-02-23T04:09:41.333Z,6.00
2023-02-23T04:12:52.692Z,6.00
2023-02-23T04:15:22.041Z,6.10
2023-02-23T04:18:02.986Z,6.10
2023-02-23T04:20:29.654Z,5.90
2023-02-23T04:22:56.519Z,5.60
2023-02-23T04:25:23.158Z,5.80
2023-02-23T04:27:52.795Z,5.60
2023-02-23T04:30:20.541Z,6.00
2023-02-23T04:32:47.340Z,6.20
2023-02-23T04:35:14.204Z,5.40
2023-02-23T04:37:40.839Z,7.20
2023-02-23T04:40:07.887Z,5.90
2023-02-23T04:42:35.652Z,6.00
2023-02-23T04:45:02.864Z,5.60
2023-02-23T04:47:29.821Z,5.50
2023-02-23T04:49:56.571Z,5.70
2023-02-23T04:52:23.232Z,5.70
2023-02-23T04:54:49.795Z,5.60
2023-02-23T04:57:16.374Z,5.70
2023-02-23T04:59:43.277Z,5.70
2023-02-23T05:02:09.998Z,5.20
2023-02-23T05:04:39.756Z,5.60
2023-02-23T05:07:06.435Z,6.00
2023-02-23T05:09:33.095Z,7.00
2023-02-23T05:11:59.721Z,5.70
2023-02-23T05:14:27.046Z,5.10
2023-02-23T05:16:53.818Z,5.40
2023-02-23T05:19:20.475Z,5.80
2023-02-23T05:21:47.125Z,5.40
2023-02-23T05:24:13.713Z,5.60
2023-02-23T05:26:40.355Z,5.60
2023-02-23T05:29:07.147Z,5.60
2023-02-23T05:31:33.986Z,5.60
2023-02-23T05:34:00.663Z,4.70
2023-02-23T05:36:27.656Z,5.60
2023-02-23T05:38:54.384Z,5.70
2023-02-23T05:41:22.240Z,5.50
2023-02-23T05:43:50.231Z,5.10
2023-02-23T05:46:18.026Z,5.50
2023-02-23T05:48:44.641Z,5.60
2023-02-23T05:51:13.848Z,5.50
2023-02-23T05:53:40.714Z,5.10
2023-02-23T05:56:08.705Z,4.80
2023-02-23T05:58:35.349Z,5.90
2023-02-23T06:01:01.989Z,5.80
2023-02-23T06:03:28.583Z,5.70
2023-02-23T06:05:57.016Z,5.30
2023-02-23T06:08:24.952Z,4.80
2023-02-23T06:10:51.731Z,5.60
2023-02-23T06:13:18.546Z,5.50
2023-02-23T06:15:45.209Z,5.50
2023-02-23T06:18:11.826Z,5.60
2023-02-23T06:20:40.383Z,5.50
2023-02-23T06:23:07.540Z,5.60
2023-02-23T06:25:34.314Z,5.00
2023-02-23T06:28:00.965Z,5.10
2023-02-23T06:30:27.604Z,5.20
2023-02-23T06:32:54.273Z,5.20
2023-02-23T06:35:20.892Z,5.10
2023-02-23T06:37:47.528Z,5.30
2023-02-23T06:40:14.109Z,5.20
2023-02-23T06:42:40.666Z,5.90
2023-02-23T06:45:08.575Z,5.30
2023-02-23T06:47:37.677Z,6.10
2023-02-23T06:50:08.200Z,5.70
2023-02-23T06:55:28.130Z,6.10
2023-02-23T06:57:54.821Z,5.40
2023-02-23T07:00:21.738Z,5.70
2023-02-23T07:02:55.365Z,6.10
2023-02-23T07:05:22.026Z,6.30
2023-02-23T07:07:49.639Z,5.70
2023-02-23T07:10:18.291Z,8.10
2023-02-23T07:12:44.957Z,6.10
2023-02-23T07:15:12.731Z,5.90
2023-02-23T07:17:39.362Z,6.10
2023-02-23T07:20:06.237Z,6.00
2023-02-23T07:22:34.157Z,6.10
2023-02-23T07:25:00.821Z,6.00
2023-02-23T07:27:30.429Z,6.20
2023-02-23T07:29:57.070Z,5.90
2023-02-23T07:32:23.831Z,6.10
2023-02-23T07:37:20.348Z,6.50
2023-02-23T07:39:47.462Z,6.30
2023-02-23T07:42:14.209Z,6.50
2023-02-23T07:44:40.793Z,6.10
2023-02-23T07:47:07.350Z,6.30
2023-02-23T07:49:34.264Z,6.70
2023-02-23T07:52:00.909Z,6.40
2023-02-23T07:54:27.632Z,6.70
2023-02-23T07:56:54.301Z,7.20
2023-02-23T07:59:20.952Z,6.50
2023-02-23T08:01:47.621Z,6.50
2023-02-23T08:04:14.268Z,6.70
2023-02-23T08:06:40.974Z,6.60
2023-02-23T08:09:07.784Z,7.00
2023-02-23T08:11:34.607Z,6.80
2023-02-23T08:14:01.238Z,7.60
2023-02-23T08:16:28.268Z,7.50
2023-02-23T08:18:56.354Z,7.50
2023-02-23T08:21:22.989Z,7.60
2023-02-23T08:23:49.658Z,7.70
2023-02-23T08:26:16.211Z,7.70
2023-02-23T08:28:45.290Z,7.70
2023-02-23T08:31:16.311Z,7.50
2023-02-23T08:33:48.736Z,7.70
2023-02-23T08:39:54.587Z,7.90
2023-02-23T08:42:21.271Z,7.80
2023-02-23T08:48:19.729Z,7.90
2023-02-23T08:50:49.792Z,7.40
2023-02-23T08:53:16.997Z,7.90
2023-02-23T08:55:43.551Z,7.90
2023-02-23T08:58:11.418Z,7.90
2023-02-23T09:00:39.825Z,7.70
2023-02-23T09:03:06.751Z,7.90
2023-02-23T09:05:36.803Z,7.90
2023-02-23T09:08:03.562Z,8.00
2023-02-23T09:10:30.220Z,8.10
2023-02-23T09:12:56.873Z,7.60
2023-02-23T09:15:23.496Z,7.90
2023-02-23T09:17:50.151Z,8.00
2023-02-23T09:20:20.242Z,8.20
2023-02-23T09:22:49.765Z,7.90
2023-02-23T09:37:39.002Z,8.90
2023-02-23T09:40:07.772Z,8.80
2023-02-23T09:42:39.972Z,9.00
2023-02-23T09:45:12.291Z,8.60
2023-02-23T09:47:45.025Z,9.00
2023-02-23T09:50:17.607Z,9.00
2023-02-23T09:52:52.255Z,9.20
2023-02-23T09:55:18.919Z,9.20
2023-02-23T09:57:49.265Z,9.20
2023-02-23T10:00:24.141Z,9.30
2023-02-23T10:02:53.775Z,9.50
2023-02-23T10:07:47.370Z,9.50
2023-02-23T10:10:23.238Z,8.90
2023-02-23T10:13:09.502Z,9.50
2023-02-23T10:15:40.375Z,9.60
2023-02-23T10:18:12.182Z,9.20
2023-02-23T10:20:57.719Z,9.80
2023-02-23T10:23:31.340Z,9.90
2023-02-23T10:25:59.976Z,9.90
2023-02-23T10:28:27.028Z,10.00
2023-02-23T10:30:55.601Z,10.00
2023-02-23T10:33:38.028Z,10.10
2023-02-23T10:36:19.235Z,10.10
2023-02-23T10:38:46.555Z,10.10
2023-02-23T10:41:14.907Z,10.00
2023-02-23T10:43:41.887Z,10.00
2023-02-23T10:46:12.071Z,10.10
2023-02-23T10:48:42.993Z,10.80
2023-02-23T10:51:18.607Z,10.50
2023-02-23T10:53:45.564Z,10.80
2023-02-23T10:56:16.901Z,10.60
2023-02-23T10:58:46.394Z,10.70
2023-02-23T11:01:18.613Z,10.60
2023-02-23T11:03:57.556Z,10.70
2023-02-23T11:06:54.056Z,10.40
2023-02-23T11:09:41.224Z,10.70
2023-02-23T11:12:21.910Z,10.60
2023-02-23T11:14:53.213Z,10.60
2023-02-23T11:17:37.114Z,10.70
2023-02-23T11:20:25.690Z,10.80
2023-02-23T11:22:52.421Z,10.90
2023-02-23T11:25:27.790Z,10.90
2023-02-23T11:30:25.335Z,11.30
2023-02-23T11:32:54.223Z,10.70
2023-02-23T11:35:20.811Z,10.10
2023-02-23T11:37:50.596Z,9.90
2023-02-23T11:40:35.374Z,11.00
2023-02-23T11:43:05.034Z,11.00
2023-02-23T11:45:33.592Z,11.00
2023-02-23T11:48:02.160Z,9.50
2023-02-23T11:50:30.485Z,10.60
2023-02-23T11:53:01.661Z,10.00
2023-02-23T11:55:29.477Z,9.60
2023-02-23T11:58:08.324Z,10.30
2023-02-23T12:00:34.952Z,11.90
2023-02-23T12:03:03.095Z,10.60
2023-02-23T12:05:30.784Z,10.30
2023-02-23T12:08:10.559Z,10.20
2023-02-23T12:10:40.047Z,10.50
2023-02-23T12:13:14.120Z,10.40
2023-02-23T12:16:00.971Z,10.40
2023-02-23T12:18:39.771Z,10.30
2023-02-23T12:21:13.680Z,10.40
2023-02-23T12:23:41.108Z,10.40
2023-02-23T12:26:21.469Z,10.50
2023-02-23T12:28:52.990Z,10.40
2023-02-23T12:31:19.664Z,10.20
2023-02-23T12:33:47.943Z,10.20
2023-02-23T12:36:47.341Z,10.90
2023-02-23T12:39:24.485Z,10.40
2023-02-23T12:42:01.207Z,10.50
2023-02-23T12:44:51.560Z,10.70
2023-02-23T12:47:36.610Z,10.60
2023-02-23T12:53:45.128Z,10.60
2023-02-23T13:12:43.926Z,10.80
2023-02-23T13:19:06.901Z,10.90
2023-02-23T13:21:39.303Z,11.00
2023-02-23T13:25:00.632Z,10.80
2023-02-23T13:27:30.956Z,11.00
2023-02-23T13:29:59.123Z,11.30
2023-02-23T13:32:29.462Z,10.60
2023-02-23T13:35:03.172Z,10.70
2023-02-23T13:37:34.959Z,11.00
2023-02-23T13:40:01.658Z,10.90
2023-02-23T13:42:36.852Z,10.90
2023-02-23T13:45:22.644Z,10.90
2023-02-23T13:48:08.121Z,10.90
2023-02-23T13:50:40.106Z,10.90
2023-02-23T13:53:07.696Z,11.00
2023-02-23T13:55:48.174Z,10.90
2023-02-23T13:58:18.423Z,11.30
2023-02-23T14:00:50.357Z,10.80
2023-02-23T14:03:29.126Z,10.90
2023-02-23T14:05:57.368Z,11.20
2023-02-23T14:08:30.306Z,11.30
2023-02-23T14:10:57.487Z,11.30
2023-02-23T14:13:28.835Z,11.20
2023-02-23T14:16:18.780Z,11.20
2023-02-23T14:19:03.870Z,11.00
2023-02-23T14:21:30.854Z,11.00
2023-02-23T14:24:03.573Z,11.00
2023-02-23T14:26:30.126Z,10.90
2023-02-23T14:29:15.630Z,11.00
2023-02-23T14:31:53.779Z,10.90
2023-02-23T14:34:22.879Z,10.70
2023-02-23T14:36:53.309Z,10.80
2023-02-23T14:39:23.981Z,11.00
2023-02-23T14:41:53.056Z,10.80
2023-02-23T14:44:35.561Z,10.60
2023-02-23T14:47:20.925Z,10.80
2023-02-23T14:49:48.849Z,10.70
2023-02-23T14:52:21.662Z,10.60
2023-02-23T14:54:48.428Z,10.60
2023-02-23T14:57:25.792Z,10.60
2023-02-23T14:59:59.740Z,10.50
2023-02-23T15:02:27.840Z,10.50
2023-02-23T15:04:54.480Z,10.30
2023-02-23T15:07:31.683Z,10.30
2023-02-23T15:09:59.138Z,10.40
2023-02-23T15:12:30.920Z,10.30
2023-02-23T15:15:01.892Z,10.60
2023-02-23T15:17:31.817Z,10.60
2023-02-23T15:20:16.397Z,10.50
2023-02-23T15:22:46.770Z,10.50
2023-02-23T15:25:15.018Z,10.30
2023-02-23T15:27:44.215Z,9.70
2023-02-23T15:30:23.497Z,10.40
2023-02-23T15:32:59.320Z,10.40
2023-02-23T15:35:26.446Z,9.70
2023-02-23T15:38:01.412Z,9.50
2023-02-23T15:40:38.190Z,11.00
2023-02-23T15:43:04.843Z,10.30
2023-02-23T15:45:31.464Z,9.90
2023-02-23T15:48:00.163Z,9.60
2023-02-23T15:50:40.901Z,9.80
2023-02-23T15:53:13.493Z,10.50
2023-02-23T15:55:42.221Z,11.20
2023-02-23T15:58:17.111Z,9.30
2023-02-23T16:00:44.398Z,10.50
2023-02-23T16:03:25.218Z,11.70
2023-02-23T16:05:56.207Z,10.50
2023-02-23T16:08:24.698Z,10.70
2023-02-23T16:10:55.063Z,9.40
2023-02-23T16:13:22.310Z,9.90
2023-02-23T16:15:52.815Z,9.80
2023-02-23T16:18:23.106Z,10.20
2023-02-23T16:20:56.873Z,10.10
2023-02-23T16:23:33.780Z,10.00
2023-02-23T16:26:06.658Z,10.20
2023-02-23T16:28:33.756Z,9.70
2023-02-23T16:31:02.194Z,9.90
2023-02-23T16:33:29.856Z,8.70
2023-02-23T16:36:08.571Z,9.50
2023-02-23T16:38:39.942Z,9.90
2023-02-23T16:41:12.231Z,8.70
2023-02-23T16:43:38.888Z,9.30
2023-02-23T16:46:05.570Z,9.60
2023-02-23T16:48:32.165Z,9.80
2023-02-23T16:50:58.727Z,9.30
2023-02-23T16:53:25.338Z,9.70
2023-02-23T16:55:55.907Z,9.40
2023-02-23T16:58:24.739Z,9.70
2023-02-23T17:00:51.985Z,9.60
2023-02-23T17:03:26.355Z,9.40
2023-02-23T17:05:53.620Z,9.70
2023-02-23T17:08:20.306Z,9.40
2023-02-23T17:10:48.489Z,9.40
2023-02-23T17:13:18.393Z,9.50
2023-02-23T17:15:51.571Z,9.70
2023-02-23T17:18:19.333Z,9.60
2023-02-23T17:20:45.983Z,9.50
2023-02-23T17:23:12.577Z,9.40
2023-02-23T17:25:39.189Z,9.40
2023-02-23T17:28:05.899Z,9.30
2023-02-23T17:30:32.790Z,9.30
2023-02-23T17:33:00.186Z,9.10
2023-02-23T17:35:27.718Z,9.00
2023-02-23T17:37:54.493Z,9.30
2023-02-23T17:40:28.988Z,8.90
2023-02-23T17:42:56.978Z,9.00
2023-02-23T17:45:24.451Z,8.90
2023-02-23T17:47:51.285Z,8.90
2023-02-23T17:50:19.973Z,9.00
2023-02-23T17:52:47.248Z,8.90
2023-02-23T17:55:13.892Z,8.90
2023-02-23T17:57:40.542Z,8.80
2023-02-23T18:00:07.440Z,8.90
2023-02-23T18:02:34.013Z,9.00
2023-02-23T18:05:00.588Z,8.90
2023-02-23T18:07:28.538Z,8.80
2023-02-23T18:09:55.135Z,8.90
2023-02-23T18:12:21.717Z,8.90
2023-02-23T18:14:48.347Z,9.00
2023-02-23T18:17:15.722Z,9.10
2023-02-23T18:19:43.155Z,8.70
2023-02-23T18:22:10.286Z,8.70
2023-02-23T18:24:37.460Z,8.70
2023-02-23T18:27:04.480Z,8.60
2023-02-23T18:29:32.635Z,9.50
2023-02-23T18:32:00.384Z,8.60
2023-02-23T18:34:28.566Z,8.70
2023-02-23T18:36:56.233Z,8.60
2023-02-23T18:39:22.871Z,8.60
2023-02-23T18:41:49.995Z,8.40
2023-02-23T18:44:17.340Z,8.50
2023-02-23T18:46:44.765Z,8.50
2023-02-23T18:49:15.582Z,8.30
2023-02-23T18:51:43.379Z,8.50
2023-02-23T18:54:12.948Z,8.30
2023-02-23T18:56:40.210Z,7.80
2023-02-23T18:59:06.795Z,8.00
2023-02-23T19:01:33.999Z,8.20
2023-02-23T19:04:01.730Z,8.10
2023-02-23T19:06:28.954Z,8.10
2023-02-23T19:08:57.292Z,8.10
2023-02-23T19:11:25.736Z,8.10
2023-02-23T19:13:53.124Z,8.00
2023-02-23T19:16:19.834Z,7.90
2023-02-23T19:18:47.320Z,7.80
2023-02-23T19:21:14.698Z,7.80
2023-02-23T19:23:41.414Z,7.70
2023-02-23T19:26:08.056Z,7.90
2023-02-23T19:28:34.710Z,7.70
2023-02-23T19:31:05.380Z,7.70
2023-02-23T19:33:32.705Z,7.80
2023-02-23T19:36:01.406Z,7.50
2023-02-23T19:38:28.586Z,7.80
2023-02-23T19:40:57.335Z,7.90
2023-02-23T19:43:24.201Z,7.70
2023-02-23T19:45:50.890Z,7.70
2023-02-23T19:48:17.529Z,7.40
2023-02-23T19:50:48.076Z,7.90
2023-02-23T19:53:17.752Z,7.90
2023-02-23T19:55:45.304Z,7.80
2023-02-23T19:58:12.433Z,7.70
2023-02-23T20:00:39.502Z,7.70
2023-02-23T20:03:09.000Z,7.70
2023-02-23T20:05:45.117Z,7.70
2023-02-23T20:08:11.661Z,7.60
2023-02-23T20:10:38.895Z,7.60
2023-02-23T20:13:05.462Z,7.50
2023-02-23T20:15:32.040Z,7.40
2023-02-23T20:17:58.593Z,7.40
2023-02-23T20:20:25.879Z,7.40
2023-02-23T20:22:55.352Z,7.50
2023-02-23T20:25:22.846Z,7.20
2023-02-23T20:27:50.572Z,7.50
2023-02-23T20:30:17.634Z,7.80
2023-02-23T20:32:44.844Z,7.60
2023-02-23T20:35:15.377Z,7.30
2023-02-23T20:37:42.133Z,7.60
2023-02-23T20:40:17.071Z,7.10
2023-02-23T20:42:44.620Z,7.80
2023-02-23T20:45:12.091Z,7.40
2023-02-23T20:47:39.408Z,7.20
2023-02-23T20:50:06.313Z,7.20
2023-02-23T20:52:32.857Z,7.50
2023-02-23T20:54:59.522Z,7.10
2023-02-23T20:57:26.861Z,6.90
2023-02-23T20:59:53.396Z,6.70
2023-02-23T21:02:19.966Z,7.10
2023-02-23T21:04:46.520Z,7.00
2023-02-23T21:07:13.557Z,7.00
2023-02-23T21:09:40.777Z,7.00
2023-02-23T21:12:10.230Z,7.20
2023-02-23T21:14:36.851Z,7.40
2023-02-23T21:17:03.471Z,7.30
2023-02-23T21:19:31.144Z,7.40
2023-02-23T21:22:01.820Z,7.40
2023-02-23T21:24:30.224Z,7.10
2023-02-23T21:26:56.855Z,7.10
2023-02-23T21:29:23.852Z,7.10
2023-02-23T21:31:50.787Z,8.70
2023-02-23T21:34:20.421Z,7.30
2023-02-23T21:36:47.522Z,7.20
2023-02-23T21:39:15.278Z,6.80
2023-02-23T21:41:41.850Z,7.30
2023-02-23T21:44:08.531Z,7.10
2023-02-23T21:46:35.231Z,7.30
2023-02-23T21:49:07.194Z,6.60
2023-02-23T21:51:34.743Z,7.60
2023-02-23T21:54:01.329Z,7.00
2023-02-23T21:56:29.508Z,7.10
2023-02-23T21:58:56.522Z,7.20
2023-02-23T22:01:27.710Z,7.20
2023-02-23T22:03:55.150Z,7.30
2023-02-23T22:06:23.845Z,7.30
2023-02-23T22:08:50.595Z,7.10
2023-02-23T22:11:19.679Z,7.10
2023-02-23T22:13:50.118Z,7.30
2023-02-23T22:16:18.642Z,7.50
2023-02-23T22:18:45.328Z,6.90
2023-02-23T22:21:12.623Z,7.40
2023-02-23T22:23:39.882Z,7.50
2023-02-23T22:26:07.310Z,7.30
2023-02-23T22:28:34.575Z,7.20
2023-02-23T22:31:08.251Z,7.40
2023-02-23T22:33:35.957Z,7.90
2023-02-23T22:36:12.916Z,7.70
2023-02-23T22:38:40.692Z,7.70
2023-02-23T22:41:10.486Z,7.30
2023-02-23T22:43:46.370Z,7.70
2023-02-23T22:46:14.208Z,7.80
2023-02-23T22:48:44.726Z,7.40
2023-02-23T22:51:12.381Z,7.50
2023-02-23T22:53:38.944Z,7.40
2023-02-23T22:56:06.122Z,7.70
2023-02-23T22:58:41.997Z,7.80
2023-02-23T23:01:11.062Z,7.80
2023-02-23T23:03:40.288Z,7.60
2023-02-23T23:06:09.533Z,7.40
2023-02-23T23:08:38.690Z,7.70
2023-02-23T23:11:15.933Z,7.50
2023-02-23T23:13:44.766Z,7.70
2023-02-23T23:16:16.735Z,7.40
2023-02-23T23:18:55.198Z,7.60
2023-02-23T23:21:24.186Z,7.60
2023-02-23T23:23:51.942Z,8.70
2023-02-23T23:26:20.789Z,7.20
2023-02-23T23:28:49.091Z,7.10
2023-02-23T23:31:22.632Z,7.00
2023-02-23T23:33:50.326Z,6.60
2023-02-23T23:36:17.652Z,7.10
2023-02-23T23:38:45.617Z,6.90
2023-02-23T23:41:15.220Z,7.30
2023-02-23T23:43:48.581Z,7.20
2023-02-23T23:46:22.692Z,7.40
2023-02-23T23:48:49.704Z,7.40
2023-02-23T23:51:16.307Z,7.00
2023-02-23T23:53:42.866Z,6.90
2023-02-23T23:56:10.760Z,6.80
2023-02-23T23:58:38.213Z,7.10
